Time;durP1;ratioP1;P1;durP2;ratioP2;P2;SDS_P1;SDS_P2;PMS_P1;PMS_P2;Temp;Humidity;BMP_temperature;BMP_pressure;BME280_temperature;BME280_humidity;BME280_pressure;Samples;Min_cycle;Max_cycle;Signal;HPM_P1;HPM_P2
2023/05/23 00:01:44;;;;;;;35.15;21.67;;;;;;;14.14;100.00;101712.19;5081738;28;20439;-74
2023/05/23 00:04:15;;;;;;;34.17;20.75;;;;;;;14.15;100.00;101718.44;5077229;28;20028;-74
2023/05/23 00:06:43;;;;;;;33.78;20.60;;;;;;;14.16;100.00;101715.63;5070571;28;20028;-74
2023/05/23 00:09:08;;;;;;;37.08;21.83;;;;;;;14.18;100.00;101715.50;5080190;28;20421;-74
2023/05/23 00:11:36;;;;;;;34.95;21.58;;;;;;;14.20;100.00;101713.53;5086799;28;20032;-74
2023/05/23 00:14:01;;;;;;;31.70;20.45;;;;;;;14.22;100.00;101727.81;5074799;28;20035;-74
2023/05/23 00:16:27;;;;;;;35.25;20.33;;;;;;;14.20;100.00;101724.34;5072636;28;20536;-74
2023/05/23 00:18:52;;;;;;;32.92;18.73;;;;;;;14.24;100.00;101722.28;5073659;28;20040;-74
2023/05/23 00:21:17;;;;;;;27.60;17.25;;;;;;;14.26;100.00;101726.63;5084547;28;20080;-74
2023/05/23 00:23:43;;;;;;;29.50;19.20;;;;;;;14.24;100.00;101725.00;5082718;28;20444;-74
2023/05/23 00:26:08;;;;;;;29.35;17.35;;;;;;;14.24;100.00;101733.97;5079414;28;20617;-74
2023/05/23 00:28:37;;;;;;;29.70;18.17;;;;;;;14.23;100.00;101724.13;5070314;28;20507;-74
2023/05/23 00:31:02;;;;;;;28.30;16.70;;;;;;;14.26;100.00;101729.31;5070417;28;20040;-74
2023/05/23 00:33:28;;;;;;;29.10;16.13;;;;;;;14.30;100.00;101730.78;5077401;28;20025;-74
2023/05/23 00:35:54;;;;;;;27.13;15.52;;;;;;;14.28;100.00;101732.75;5080682;28;20028;-74
2023/05/23 00:38:19;;;;;;;29.63;16.38;;;;;;;14.26;100.00;101732.03;5082696;28;20065;-74
2023/05/23 00:40:45;;;;;;;30.63;15.98;;;;;;;14.28;100.00;101732.75;5073036;28;20488;-74
2023/05/23 00:43:11;;;;;;;29.50;14.85;;;;;;;14.25;100.00;101730.28;5071783;28;20047;-74
2023/05/23 00:45:36;;;;;;;29.38;15.95;;;;;;;14.27;100.00;101735.56;5084740;28;20020;-74
2023/05/23 00:48:03;;;;;;;28.02;15.20;;;;;;;14.28;100.00;101732.75;5084744;28;20085;-74
2023/05/23 00:50:29;;;;;;;26.27;14.80;;;;;;;14.29;100.00;101736.31;5072488;28;20024;-74
2023/05/23 00:52:56;;;;;;;24.90;15.00;;;;;;;14.31;100.00;101737.94;5077373;28;20027;-74
2023/05/23 00:55:23;;;;;;;28.52;15.95;;;;;;;14.31;100.00;101742.47;5073816;28;20064;-74
2023/05/23 00:57:48;;;;;;;28.52;16.80;;;;;;;14.31;100.00;101743.34;5074904;28;20464;-74
2023/05/23 01:00:14;;;;;;;28.73;16.25;;;;;;;14.29;100.00;101733.59;5091732;28;20020;-74
2023/05/23 01:02:44;;;;;;;27.83;15.73;;;;;;;14.26;100.00;101739.25;5072388;28;20379;-74
2023/05/23 01:05:16;;;;;;;27.98;16.88;;;;;;;14.25;100.00;101749.22;5069445;28;20039;-74
2023/05/23 01:07:45;;;;;;;29.02;16.02;;;;;;;14.26;100.00;101747.34;5077477;28;20191;-74
2023/05/23 01:10:12;;;;;;;28.08;15.80;;;;;;;14.26;100.00;101750.94;5075702;28;20020;-73
2023/05/23 01:13:06;;;;;;;34.08;17.95;;;;;;;14.26;100.00;101755.47;5087924;28;20081;-74
2023/05/23 01:15:52;;;;;;;32.58;18.10;;;;;;;14.26;100.00;101750.06;5080943;28;20154;-74
2023/05/23 01:18:29;;;;;;;30.35;17.15;;;;;;;14.23;100.00;101758.41;5098745;28;20020;-74
2023/05/23 01:20:58;;;;;;;30.48;17.70;;;;;;;14.21;100.00;101761.22;5099080;28;20035;-74
2023/05/23 01:23:33;;;;;;;29.02;14.50;;;;;;;14.18;100.00;101752.50;5096326;28;20026;-73
2023/05/23 01:26:22;;;;;;;27.27;13.93;;;;;;;14.18;100.00;101757.91;5091245;28;20035;-74
2023/05/23 01:28:50;;;;;;;26.85;13.63;;;;;;;14.14;100.00;101755.44;5083885;28;20461;-74
2023/05/23 01:31:17;;;;;;;26.88;14.10;;;;;;;14.12;100.00;101754.66;5087280;28;20027;-74
2023/05/23 01:33:43;;;;;;;27.70;13.60;;;;;;;14.06;100.00;101751.56;5081333;28;20149;-74
2023/05/23 01:36:12;;;;;;;26.85;13.85;;;;;;;14.07;100.00;101762.25;5099040;28;20016;-74
2023/05/23 01:38:38;;;;;;;25.67;13.32;;;;;;;14.07;100.00;101770.38;5077718;28;20500;-73
2023/05/23 01:41:03;;;;;;;29.73;16.55;;;;;;;14.06;100.00;101773.19;5099162;28;21277;-73
2023/05/23 01:43:29;;;;;;;28.88;14.40;;;;;;;14.08;100.00;101771.22;5098516;28;20410;-74
2023/05/23 01:45:55;;;;;;;34.13;16.70;;;;;;;14.04;100.00;101778.72;5101850;28;20107;-74
2023/05/23 01:48:23;;;;;;;31.10;15.68;;;;;;;14.05;100.00;101775.00;5106034;28;20023;-74
2023/05/23 01:50:49;;;;;;;30.83;17.02;;;;;;;14.04;100.00;101772.41;5084264;28;20023;-74
2023/05/23 01:53:16;;;;;;;29.70;16.83;;;;;;;14.03;100.00;101776.13;5082672;28;20430;-74
2023/05/23 01:55:41;;;;;;;30.50;17.30;;;;;;;13.99;100.00;101773.63;5100206;28;20428;-74
2023/05/23 01:58:07;;;;;;;28.17;17.02;;;;;;;13.97;100.00;101767.47;5092204;28;20073;-74
2023/05/23 02:00:33;;;;;;;33.53;18.17;;;;;;;13.98;100.00;101773.72;5099277;28;20038;-74
2023/05/23 02:02:58;;;;;;;31.58;16.63;;;;;;;13.95;100.00;101772.13;5078326;28;20428;-74
2023/05/23 02:05:24;;;;;;;31.52;16.70;;;;;;;13.93;100.00;101784.03;5098298;28;20333;-74
2023/05/23 02:07:49;;;;;;;35.10;17.00;;;;;;;13.88;100.00;101778.97;5101105;28;20020;-74
2023/05/23 02:10:15;;;;;;;33.65;17.05;;;;;;;13.90;100.00;101793.22;5096317;28;20082;-73
2023/05/23 02:12:40;;;;;;;32.70;17.35;;;;;;;13.88;100.00;101787.06;5082129;28;20118;-73
2023/05/23 02:15:06;;;;;;;34.13;17.80;;;;;;;13.90;100.00;101790.50;5071424;28;20024;-73
2023/05/23 02:17:31;;;;;;;30.13;17.08;;;;;;;13.91;100.00;101785.97;5097141;28;20119;-73
2023/05/23 02:19:57;;;;;;;33.75;17.98;;;;;;;13.92;100.00;101793.94;5083533;28;20040;-74
2023/05/23 02:22:25;;;;;;;31.75;17.30;;;;;;;13.89;100.00;101796.88;5085005;28;20023;-74
2023/05/23 02:24:51;;;;;;;38.23;16.70;;;;;;;13.89;100.00;101802.28;5089661;28;20111;-74
2023/05/23 02:27:18;;;;;;;29.45;16.95;;;;;;;13.89;100.00;101802.28;5068674;28;20518;-74
2023/05/23 02:29:43;;;;;;;35.08;17.73;;;;;;;13.84;100.00;101809.88;5068261;28;20043;-74
2023/05/23 02:32:09;;;;;;;29.88;16.23;;;;;;;13.88;100.00;101805.97;5081385;28;20032;-74
2023/05/23 02:34:34;;;;;;;32.45;15.90;;;;;;;13.86;100.00;101799.81;5096486;28;20028;-74
2023/05/23 02:36:59;;;;;;;29.50;16.85;;;;;;;13.86;100.00;101802.50;5102387;28;20112;-73
2023/05/23 02:39:26;;;;;;;27.85;14.30;;;;;;;13.83;100.00;101808.13;5099921;28;20176;-74
2023/05/23 02:41:51;;;;;;;29.77;15.70;;;;;;;13.81;100.00;101800.16;5098226;28;20467;-74
2023/05/23 02:44:18;;;;;;;32.25;15.77;;;;;;;13.80;100.00;101802.97;5072991;28;20031;-73
2023/05/23 02:46:44;;;;;;;32.20;14.55;;;;;;;13.82;100.00;101801.00;5102698;28;20024;-74
2023/05/23 02:49:09;;;;;;;33.45;13.27;;;;;;;13.81;100.00;101797.44;5093150;28;20748;-74
2023/05/23 02:51:35;;;;;;;27.40;14.05;;;;;;;13.82;100.00;101801.00;5078865;28;20038;-74
2023/05/23 02:54:00;;;;;;;24.77;12.25;;;;;;;13.83;100.00;101802.72;5097714;28;20400;-74
2023/05/23 02:56:26;;;;;;;24.85;12.55;;;;;;;13.84;100.00;101800.91;5087285;28;20244;-74
2023/05/23 02:58:52;;;;;;;26.77;11.70;;;;;;;13.80;100.00;101800.25;5080674;28;20137;-73
2023/05/23 03:01:17;;;;;;;23.27;10.80;;;;;;;13.82;100.00;101801.00;5093880;28;20100;-73
2023/05/23 03:03:43;;;;;;;21.13;9.25;;;;;;;13.79;100.00;101801.22;5091170;28;20024;-74
2023/05/23 03:06:09;;;;;;;22.85;10.07;;;;;;;13.73;100.00;101799.81;5084379;28;20118;-73
2023/05/23 03:08:35;;;;;;;22.33;10.20;;;;;;;13.75;100.00;101803.28;5091890;28;20028;-73
2023/05/23 03:11:00;;;;;;;26.33;9.88;;;;;;;13.76;100.00;101806.84;5097186;28;20494;-74
2023/05/23 03:13:25;;;;;;;22.70;9.80;;;;;;;13.78;100.00;101805.78;5079532;28;20265;-73
2023/05/23 03:15:50;;;;;;;23.00;10.13;;;;;;;13.76;100.00;101801.44;5100558;28;20035;-73
2023/05/23 03:18:16;;;;;;;22.17;9.00;;;;;;;13.75;100.00;101802.44;5074868;28;20027;-73
2023/05/23 03:20:41;;;;;;;21.95;9.05;;;;;;;13.74;100.00;101803.41;5078764;28;20420;-74
2023/05/23 03:23:09;;;;;;;22.85;8.07;;;;;;;13.73;100.00;101801.66;5097096;28;20035;-73
2023/05/23 03:25:35;;;;;;;19.30;7.60;;;;;;;13.71;100.00;101799.06;5091598;28;20038;-74
2023/05/23 03:28:00;;;;;;;22.35;8.35;;;;;;;13.74;100.00;101803.41;5068356;28;20157;-74
2023/05/23 03:30:25;;;;;;;20.52;8.57;;;;;;;13.71;100.00;101803.63;5090788;28;20138;-73
2023/05/23 03:32:52;;;;;;;20.23;8.23;;;;;;;13.70;100.00;101818.94;5097961;28;20055;-74
2023/05/23 03:35:18;;;;;;;21.23;8.45;;;;;;;13.69;100.00;101806.44;5093095;28;20031;-73
2023/05/23 03:37:43;;;;;;;20.52;8.00;;;;;;;13.72;100.00;101822.44;5092908;28;20476;-73
2023/05/23 03:40:08;;;;;;;19.48;8.13;;;;;;;13.68;100.00;101815.50;5079868;28;20020;-74
2023/05/23 03:42:35;;;;;;;20.08;8.25;;;;;;;13.68;100.00;101809.25;5103400;28;20410;-74
2023/05/23 03:45:00;;;;;;;19.90;8.15;;;;;;;13.69;100.00;101817.25;5089536;28;20034;-73
2023/05/23 03:47:26;;;;;;;22.77;8.98;;;;;;;13.70;100.00;101812.69;5099299;28;20458;-73
2023/05/23 03:49:51;;;;;;;24.17;9.98;;;;;;;13.69;100.00;101809.13;5080210;28;20187;-73
2023/05/23 03:52:17;;;;;;;19.73;8.55;;;;;;;13.68;100.00;101814.66;5078559;28;20074;-73
2023/05/23 03:54:42;;;;;;;23.35;9.95;;;;;;;13.68;100.00;101823.59;5076024;28;20111;-74
2023/05/23 03:57:07;;;;;;;23.33;10.57;;;;;;;13.63;100.00;101821.25;5088753;28;20028;-73
2023/05/23 03:59:33;;;;;;;21.88;9.70;;;;;;;13.63;100.00;101823.94;5077385;28;20490;-73
2023/05/23 04:01:59;;;;;;;23.48;10.27;;;;;;;13.67;100.00;101826.44;5070812;28;20027;-74
2023/05/23 04:04:28;;;;;;;21.65;9.30;;;;;;;13.68;100.00;101828.16;5070965;28;20073;-73
2023/05/23 04:06:53;;;;;;;25.60;9.93;;;;;;;13.67;100.00;101829.97;5087508;28;20081;-73
2023/05/23 04:09:19;;;;;;;21.90;9.70;;;;;;;13.65;100.00;101840.03;5083778;28;20433;-74
2023/05/23 04:11:45;;;;;;;24.95;9.93;;;;;;;13.69;100.00;101825.34;5075940;28;20542;-74
2023/05/23 04:14:11;;;;;;;21.65;9.15;;;;;;;13.70;100.00;101832.47;5098009;28;20020;-74
2023/05/23 04:16:36;;;;;;;21.92;9.02;;;;;;;13.69;100.00;101836.16;5101788;28;20028;-73
2023/05/23 04:19:03;;;;;;;23.77;9.05;;;;;;;13.70;100.00;101837.88;5104673;28;20307;-73
2023/05/23 04:21:28;;;;;;;21.65;9.63;;;;;;;13.71;100.00;101836.03;5097073;28;20069;-73
2023/05/23 04:23:55;;;;;;;21.33;9.73;;;;;;;13.73;100.00;101837.63;5082157;28;20020;-74
2023/05/23 04:26:20;;;;;;;25.10;9.55;;;;;;;13.76;100.00;101840.16;5096482;28;20649;-73
2023/05/23 04:28:47;;;;;;;21.20;9.73;;;;;;;13.74;100.00;101841.22;5091814;28;20135;-73
2023/05/23 04:31:13;;;;;;;26.65;11.25;;;;;;;13.76;100.00;101844.66;5075791;28;20467;-73
2023/05/23 04:33:38;;;;;;;22.95;10.25;;;;;;;13.73;100.00;101844.91;5093248;28;20027;-73
2023/05/23 04:36:07;;;;;;;24.60;9.88;;;;;;;13.72;100.00;101843.16;5102371;28;20517;-73
2023/05/23 04:38:33;;;;;;;26.17;10.43;;;;;;;13.72;100.00;101849.44;5100829;28;20034;-73
2023/05/23 04:40:58;;;;;;;22.83;9.80;;;;;;;13.74;100.00;101852.03;5094094;28;20479;-73
2023/05/23 04:43:25;;;;;;;24.40;9.77;;;;;;;13.77;100.00;101854.50;5082033;28;20027;-73
2023/05/23 04:45:53;;;;;;;25.77;11.13;;;;;;;13.78;100.00;101864.34;5099383;28;20359;-73
2023/05/23 04:48:20;;;;;;;31.58;12.20;;;;;;;13.77;100.00;101857.22;5089330;28;20032;-73
2023/05/23 04:50:46;;;;;;;35.50;12.10;;;;;;;13.79;100.00;101866.06;5096314;28;20032;-73
2023/05/23 04:53:12;;;;;;;26.63;11.90;;;;;;;13.80;100.00;101870.50;5097284;28;20475;-73
2023/05/23 04:55:37;;;;;;;30.20;12.40;;;;;;;13.78;100.00;101872.47;5081684;28;20043;-73
2023/05/23 04:58:02;;;;;;;28.40;13.00;;;;;;;13.76;100.00;101867.16;5097375;28;20031;-73
2023/05/23 05:00:29;;;;;;;27.30;12.88;;;;;;;13.76;100.00;101875.28;5089667;28;20024;-73
2023/05/23 05:02:54;;;;;;;31.77;12.38;;;;;;;13.75;100.00;101880.78;5072100;28;20020;-73
2023/05/23 05:05:19;;;;;;;27.75;11.85;;;;;;;13.73;100.00;101872.75;5101360;28;20107;-73
2023/05/23 05:07:44;;;;;;;24.65;11.00;;;;;;;13.70;100.00;101875.69;5093916;28;20053;-73
2023/05/23 05:10:15;;;;;;;27.23;11.65;;;;;;;13.73;100.00;101877.31;5092658;28;20024;-73
2023/05/23 05:12:50;;;;;;;30.60;13.27;;;;;;;13.73;100.00;101880.88;5094170;28;20086;-73
2023/05/23 05:15:16;;;;;;;31.42;12.95;;;;;;;13.72;100.00;101889.09;5104487;28;20080;-73
2023/05/23 05:17:42;;;;;;;29.85;12.55;;;;;;;13.72;100.00;101894.47;5099053;28;20028;-73
2023/05/23 05:20:09;;;;;;;34.13;12.85;;;;;;;13.71;100.00;101892.78;5096838;28;20027;-74
2023/05/23 05:22:35;;;;;;;29.85;12.75;;;;;;;13.71;100.00;101887.38;5087486;28;20027;-73
2023/05/23 05:25:02;;;;;;;33.55;13.80;;;;;;;13.69;100.00;101890.19;5092760;28;20020;-73
2023/05/23 05:27:28;;;;;;;29.42;12.20;;;;;;;13.66;99.46;101897.63;5098272;28;20230;-74
2023/05/23 05:29:57;;;;;;;29.50;12.40;;;;;;;13.64;99.94;101908.53;5085379;28;20032;-73
2023/05/23 05:32:22;;;;;;;32.20;12.50;;;;;;;13.64;100.00;101906.69;5102159;28;20517;-73
2023/05/23 05:34:47;;;;;;;30.83;12.77;;;;;;;13.61;100.00;101898.81;5080622;28;20118;-73
2023/05/23 05:37:13;;;;;;;27.85;11.73;;;;;;;13.58;99.11;101906.28;5086815;28;20032;-73
2023/05/23 05:39:39;;;;;;;28.20;11.85;;;;;;;13.54;99.24;101911.00;5068338;28;20016;-74
2023/05/23 05:42:04;;;;;;;29.77;12.00;;;;;;;13.48;99.08;101910.56;5085618;28;20031;-73
2023/05/23 05:44:30;;;;;;;27.27;11.48;;;;;;;13.45;99.55;101912.50;5068832;28;20020;-73
2023/05/23 05:46:55;;;;;;;30.50;11.13;;;;;;;13.44;98.96;101916.19;5069434;28;20054;-74
2023/05/23 05:49:21;;;;;;;24.90;10.95;;;;;;;13.48;99.01;101922.22;5086885;28;20058;-73
2023/05/23 05:51:46;;;;;;;30.50;11.20;;;;;;;13.46;98.94;101926.88;5066966;28;20127;-73
2023/05/23 05:54:12;;;;;;;26.92;10.35;;;;;;;13.42;98.80;101923.50;5069047;28;20457;-73
2023/05/23 05:56:37;;;;;;;29.33;11.15;;;;;;;13.45;99.30;101927.84;5089317;28;20044;-73
2023/05/23 05:59:02;;;;;;;28.98;10.93;;;;;;;13.44;99.45;101928.81;5088129;28;20028;-74
2023/05/23 06:01:28;;;;;;;28.38;10.30;;;;;;;13.43;98.13;101937.91;5070994;28;20073;-74
2023/05/23 06:03:53;;;;;;;26.50;10.77;;;;;;;13.42;98.84;101931.63;5086975;28;20452;-73
2023/05/23 06:06:18;;;;;;;30.10;10.77;;;;;;;13.39;97.69;101945.31;5069930;28;20043;-73
2023/05/23 06:08:44;;;;;;;27.55;8.85;;;;;;;13.36;97.96;101940.13;5087131;28;20020;-73
2023/05/23 06:11:09;;;;;;;24.23;8.80;;;;;;;13.35;96.89;101940.25;5066729;28;20039;-72
2023/05/23 06:13:37;;;;;;;28.58;9.13;;;;;;;13.34;97.88;101949.28;5085385;28;20399;-73
2023/05/23 06:16:05;;;;;;;27.77;9.00;;;;;;;13.28;95.90;101948.72;5065552;28;20039;-73
2023/05/23 06:18:30;;;;;;;23.40;8.85;;;;;;;13.25;96.23;101951.63;5069975;28;20020;-73
2023/05/23 06:20:55;;;;;;;23.83;9.18;;;;;;;13.26;97.29;101956.06;5068022;28;20067;-73
2023/05/23 06:23:20;;;;;;;24.50;8.60;;;;;;;13.23;97.62;101958.09;5095142;28;20463;-73
2023/05/23 06:25:46;;;;;;;22.58;7.93;;;;;;;13.27;98.47;101957.78;5073633;28;20119;-73
2023/05/23 06:28:11;;;;;;;22.15;8.07;;;;;;;13.30;98.19;101959.44;5085089;28;20112;-73
2023/05/23 06:30:37;;;;;;;26.35;6.95;;;;;;;13.29;96.42;101955.88;5065171;28;20035;-72
2023/05/23 06:33:03;;;;;;;21.88;7.32;;;;;;;13.26;96.38;101955.19;5090487;28;20024;-73
2023/05/23 06:35:28;;;;;;;21.08;7.43;;;;;;;13.31;95.20;101968.38;5100986;28;20015;-74
2023/05/23 06:37:53;;;;;;;21.73;6.47;;;;;;;13.29;98.12;101963.09;5074703;28;20077;-73
2023/05/23 06:40:19;;;;;;;21.65;6.60;;;;;;;13.27;96.28;101963.19;5079224;28;20038;-73
2023/05/23 06:42:44;;;;;;;22.58;7.65;;;;;;;13.27;94.77;101968.59;5088063;28;20024;-73
2023/05/23 06:45:10;;;;;;;21.92;6.90;;;;;;;13.26;94.58;101982.19;5079347;28;20050;-73
2023/05/23 06:47:35;;;;;;;24.90;7.20;;;;;;;13.26;96.09;101979.50;5093217;28;20068;-73
2023/05/23 06:50:01;;;;;;;24.02;7.20;;;;;;;13.22;93.25;101989.66;5102532;28;20106;-73
2023/05/23 06:52:26;;;;;;;25.02;7.43;;;;;;;13.21;95.29;101984.34;5067583;28;20092;-73
2023/05/23 06:54:52;;;;;;;24.00;7.25;;;;;;;13.19;95.45;102002.47;5098096;28;20044;-73
2023/05/23 06:57:17;;;;;;;24.45;7.00;;;;;;;13.17;96.07;101999.88;5080087;28;20023;-73
2023/05/23 06:59:42;;;;;;;24.35;7.38;;;;;;;13.16;96.70;102002.66;5081533;28;20057;-73
2023/05/23 07:02:07;;;;;;;21.40;7.32;;;;;;;13.16;96.98;102003.53;5079701;28;20066;-73
2023/05/23 07:04:33;;;;;;;21.63;7.28;;;;;;;13.16;95.58;102008.91;5093457;28;20032;-73
2023/05/23 07:06:58;;;;;;;18.52;6.53;;;;;;;13.11;94.53;102011.06;5102092;28;20498;-73
2023/05/23 07:09:24;;;;;;;25.65;6.32;;;;;;;13.11;94.05;102009.22;5102967;28;20027;-73
2023/05/23 07:11:49;;;;;;;26.15;7.35;;;;;;;13.14;94.80;102001.91;5074588;28;20492;-73
2023/05/23 07:14:15;;;;;;;18.42;6.28;;;;;;;13.11;95.39;102011.94;5102962;28;20020;-73
2023/05/23 07:16:40;;;;;;;18.60;6.20;;;;;;;13.13;93.60;102009.13;5100747;28;20019;-73
2023/05/23 07:19:05;;;;;;;23.42;6.78;;;;;;;13.09;92.11;102011.16;5100113;28;20026;-73
2023/05/23 07:21:30;;;;;;;24.50;6.80;;;;;;;13.15;92.58;102022.53;5084613;28;20027;-73
2023/05/23 07:23:56;;;;;;;23.88;6.85;;;;;;;13.21;91.96;102023.00;5074226;28;20028;-73
2023/05/23 07:26:21;;;;;;;20.52;6.88;;;;;;;13.27;91.07;102019.03;5102639;28;20031;-73
2023/05/23 07:28:46;;;;;;;18.70;5.65;;;;;;;13.33;88.98;102025.88;5084154;28;20039;-73
2023/05/23 07:31:12;;;;;;;19.17;6.25;;;;;;;13.41;89.11;102023.53;5076809;28;20107;-74
2023/05/23 07:33:37;;;;;;;22.15;7.88;;;;;;;13.44;89.88;102029.63;5079515;28;20483;-73
2023/05/23 07:36:03;;;;;;;19.23;6.38;;;;;;;13.50;85.25;102028.34;5099143;28;20039;-73
2023/05/23 07:38:28;;;;;;;21.90;6.78;;;;;;;13.58;86.64;102030.53;5094674;28;20543;-73
2023/05/23 07:40:53;;;;;;;20.50;6.35;;;;;;;13.65;86.01;102021.03;5072871;28;20032;-73
2023/05/23 07:43:19;;;;;;;21.40;6.38;;;;;;;13.70;86.35;102028.81;5099552;28;20494;-73
2023/05/23 07:45:44;;;;;;;21.25;6.47;;;;;;;13.78;87.02;102027.34;5078673;28;20124;-73
2023/05/23 07:48:11;;;;;;;19.77;7.00;;;;;;;13.80;84.59;102032.63;5092225;28;20532;-73
2023/05/23 07:50:38;;;;;;;20.33;5.90;;;;;;;13.78;83.56;102024.63;5100816;28;20024;-73
2023/05/23 07:53:03;;;;;;;20.45;7.03;;;;;;;13.79;83.93;102036.28;5100945;28;20020;-74
2023/05/23 07:55:28;;;;;;;20.63;7.28;;;;;;;13.83;83.37;102045.06;5084064;28;20062;-73
2023/05/23 07:57:55;;;;;;;22.27;6.88;;;;;;;13.82;83.25;102046.88;5105009;28;20055;-73
2023/05/23 08:00:20;;;;;;;20.17;7.03;;;;;;;13.75;84.20;102046.47;5086871;28;20031;-73
2023/05/23 08:02:46;;;;;;;24.50;7.20;;;;;;;13.80;85.41;102046.13;5101281;28;20491;-73
2023/05/23 08:05:11;;;;;;;21.35;7.72;;;;;;;13.79;84.11;102050.69;5083375;28;20172;-73
2023/05/23 08:07:36;;;;;;;20.88;6.43;;;;;;;13.80;83.71;102049.69;5096237;28;20160;-73
2023/05/23 08:10:01;;;;;;;22.80;7.90;;;;;;;13.81;84.56;102054.13;5104699;28;20069;-73
2023/05/23 08:12:27;;;;;;;19.35;6.60;;;;;;;13.90;85.34;102060.75;5081106;28;20072;-73
2023/05/23 08:14:52;;;;;;;25.77;7.18;;;;;;;13.95;83.65;102061.31;5091845;28;20047;-73
2023/05/23 08:17:17;;;;;;;18.27;5.97;;;;;;;14.02;84.24;102061.75;5095466;28;20124;-73
2023/05/23 08:19:43;;;;;;;18.88;6.72;;;;;;;14.10;84.13;102066.63;5079399;28;20021;-73
2023/05/23 08:22:08;;;;;;;21.20;7.00;;;;;;;14.20;83.12;102064.16;5102184;28;20035;-73
2023/05/23 08:24:33;;;;;;;21.80;6.72;;;;;;;14.24;81.44;102050.31;5105413;28;20024;-73
2023/05/23 08:26:59;;;;;;;18.65;6.13;;;;;;;14.27;79.57;102060.06;5088489;28;20027;-73
2023/05/23 08:29:24;;;;;;;20.27;6.50;;;;;;;14.26;83.57;102064.63;5084174;28;20032;-73
2023/05/23 08:31:49;;;;;;;22.25;6.85;;;;;;;14.23;83.52;102063.94;5102096;28;20032;-74
2023/05/23 08:34:15;;;;;;;24.33;6.60;;;;;;;14.20;81.06;102074.97;5105293;28;20035;-73
2023/05/23 08:36:41;;;;;;;22.05;6.28;;;;;;;14.19;81.51;102066.00;5098728;28;20028;-73
2023/05/23 08:39:07;;;;;;;21.88;5.97;;;;;;;14.20;82.31;102064.16;5105231;28;20055;-73
2023/05/23 08:41:33;;;;;;;25.70;7.40;;;;;;;14.22;81.54;102068.50;5102065;28;20047;-73
2023/05/23 08:43:59;;;;;;;20.55;6.65;;;;;;;14.29;82.88;102067.09;5100925;28;20037;-73
2023/05/23 08:46:25;;;;;;;22.48;6.38;;;;;;;14.28;81.53;102072.63;5085883;28;20027;-73
2023/05/23 08:48:55;;;;;;;21.25;6.65;;;;;;;14.29;81.30;102068.91;5087176;28;20023;-73
2023/05/23 08:51:23;;;;;;;22.13;5.68;;;;;;;14.33;84.13;102076.72;5104131;28;20015;-73
2023/05/23 08:53:49;;;;;;;16.45;5.60;;;;;;;14.36;82.02;102078.34;5102294;28;20023;-74
2023/05/23 08:56:15;;;;;;;25.13;5.90;;;;;;;14.40;82.13;102079.00;5083454;28;20058;-73
2023/05/23 08:58:42;;;;;;;18.15;5.35;;;;;;;14.46;82.71;102075.88;5083910;28;20451;-73
2023/05/23 09:01:12;;;;;;;23.67;5.75;;;;;;;14.49;83.76;102091.88;5098932;28;20032;-73
2023/05/23 09:03:38;;;;;;;22.17;6.07;;;;;;;14.48;84.33;102082.00;5099669;28;20107;-73
2023/05/23 09:06:08;;;;;;;21.48;6.47;;;;;;;14.43;84.57;102089.59;5101387;28;20016;-73
2023/05/23 09:08:33;;;;;;;19.27;5.93;;;;;;;14.42;84.09;102091.47;5096150;28;20032;-73
2023/05/23 09:11:01;;;;;;;19.45;5.85;;;;;;;14.45;82.64;102093.06;5104528;28;20505;-73
2023/05/23 09:13:28;;;;;;;19.90;6.20;;;;;;;14.51;83.70;102095.34;5097480;28;20028;-73
2023/05/23 09:16:06;;;;;;;17.75;5.70;;;;;;;14.65;84.10;102095.25;5101347;28;20038;-73
2023/05/23 09:18:40;;;;;;;20.30;6.22;;;;;;;14.76;82.92;102090.91;5103599;28;20039;-73
2023/05/23 09:21:07;;;;;;;18.90;5.85;;;;;;;14.78;81.46;102097.09;5075158;28;20466;-72
2023/05/23 09:23:33;;;;;;;17.75;5.35;;;;;;;14.76;79.81;102085.50;5083902;28;20024;-73
2023/05/23 09:26:10;;;;;;;25.02;5.88;;;;;;;14.77;80.82;102098.94;5080986;28;20483;-73
2023/05/23 09:28:37;;;;;;;17.83;4.28;;;;;;;14.76;79.64;102099.03;5084568;28;20028;-72
2023/05/23 09:31:06;;;;;;;16.70;4.38;;;;;;;14.78;78.37;102097.09;5101826;28;20016;-73
2023/05/23 09:33:48;;;;;;;20.17;4.22;;;;;;;14.85;79.12;102103.81;5102873;28;20058;-73
2023/05/23 09:36:15;;;;;;;17.83;4.47;;;;;;;14.87;77.68;102109.13;5098733;28;20039;-73
2023/05/23 09:38:42;;;;;;;21.58;4.40;;;;;;;14.85;74.47;102106.53;5104780;28;20128;-73
2023/05/23 09:41:11;;;;;;;16.38;4.18;;;;;;;14.83;73.09;102105.75;5077449;28;20069;-73
2023/05/23 09:43:37;;;;;;;17.15;3.97;;;;;;;14.88;74.45;102109.00;5086041;28;20314;-73
2023/05/23 09:46:08;;;;;;;15.40;3.70;;;;;;;14.87;75.47;102106.41;5086120;28;20024;-73
2023/05/23 09:48:34;;;;;;;14.80;4.13;;;;;;;14.89;74.99;102109.88;5090587;28;20039;-73
2023/05/23 09:51:09;;;;;;;13.60;3.40;;;;;;;14.94;75.27;102103.16;5097482;28;20482;-73
2023/05/23 09:53:34;;;;;;;17.77;4.25;;;;;;;14.98;73.81;102103.81;5101618;28;20468;-73
2023/05/23 09:56:02;;;;;;;15.77;3.50;;;;;;;15.00;73.56;102102.69;5079321;28;20093;-73
2023/05/23 09:58:29;;;;;;;15.07;4.05;;;;;;;15.00;73.44;102113.53;5081747;28;20024;-73
2023/05/23 10:00:55;;;;;;;19.23;5.10;;;;;;;15.01;72.90;102109.00;5083109;28;20162;-73
2023/05/23 10:03:32;;;;;;;16.90;3.95;;;;;;;15.02;74.40;102110.72;5090235;28;20024;-73
2023/05/23 10:06:09;;;;;;;25.17;5.28;;;;;;;15.03;73.71;102097.06;5062264;28;20028;-72
2023/05/23 10:08:47;;;;;;;22.85;6.20;;;;;;;15.08;73.83;102109.41;5082616;28;20051;-72
2023/05/23 10:11:12;;;;;;;14.90;4.10;;;;;;;15.17;72.77;102108.75;5083320;28;20167;-72
2023/05/23 10:13:41;;;;;;;17.00;3.72;;;;;;;15.23;73.35;102102.88;5067807;28;20056;-73
2023/05/23 10:16:14;;;;;;;21.00;4.65;;;;;;;15.24;71.30;102101.88;5074834;28;20013;-72
2023/05/23 10:18:43;;;;;;;19.23;5.72;;;;;;;15.35;73.14;102099.25;5078571;28;20032;-72
2023/05/23 10:21:13;;;;;;;19.60;4.25;;;;;;;15.45;73.06;102104.03;5076016;28;20456;-72
2023/05/23 10:23:38;;;;;;;;;;;;;;;15.56;74.76;102104.06;5076394;28;20073;-72
2023/05/23 10:26:04;;;;;;;17.67;4.55;;;;;;;15.50;73.15;102110.81;5074787;28;20385;-72
2023/05/23 10:28:31;;;;;;;20.75;4.70;;;;;;;15.52;72.91;102106.16;5062676;28;20024;-72
2023/05/23 10:30:58;;;;;;;15.30;3.78;;;;;;;15.60;72.22;102111.00;5079827;28;20035;-72
2023/05/23 10:33:24;;;;;;;16.98;4.65;;;;;;;15.70;71.57;102100.34;5074768;28;20028;-72
2023/05/23 10:35:59;;;;;;;20.27;4.85;;;;;;;15.79;71.99;102112.38;5069200;28;20028;-72
2023/05/23 10:38:43;;;;;;;16.45;3.83;;;;;;;15.81;72.22;102118.53;5069935;28;20501;-72
2023/05/23 10:41:15;;;;;;;16.38;3.92;;;;;;;15.78;69.71;102111.47;5077171;28;20036;-72
2023/05/23 10:44:06;;;;;;;18.15;4.45;;;;;;;15.81;69.12;102107.69;5076146;28;20463;-72
2023/05/23 10:46:56;;;;;;;22.52;4.93;;;;;;;15.92;70.92;102110.44;5072120;28;20085;-72
2023/05/23 10:49:37;;;;;;;19.50;4.40;;;;;;;15.97;71.26;102108.25;5076240;28;20458;-72
2023/05/23 10:52:02;;;;;;;20.85;4.57;;;;;;;15.94;65.56;102097.63;5082355;28;20073;-72
2023/05/23 10:54:43;;;;;;;19.58;4.55;;;;;;;16.01;70.56;102104.31;5067837;28;20033;-73
2023/05/23 10:57:11;;;;;;;19.23;4.38;;;;;;;15.98;66.30;102104.56;5076080;28;20081;-72
2023/05/23 10:59:37;;;;;;;14.68;4.18;;;;;;;16.07;69.39;102114.69;5066270;28;20036;-72
2023/05/23 11:02:11;;;;;;;16.80;4.45;;;;;;;16.11;64.80;102099.06;5078376;28;20055;-72
2023/05/23 11:04:36;;;;;;;24.33;4.55;;;;;;;16.13;65.06;102090.81;5073649;28;20089;-72
2023/05/23 11:07:02;;;;;;;17.05;4.40;;;;;;;16.19;67.18;102098.47;5066919;28;20028;-71
2023/05/23 11:09:27;;;;;;;20.88;5.38;;;;;;;16.25;65.86;102097.97;5065043;28;20556;-72